createdAt,value
2022-12-04T00:01:06.513Z,79.13
2022-12-04T00:04:10.069Z,79.01
2022-12-04T00:07:12.911Z,79.00
2022-12-04T00:10:15.882Z,79.09
2022-12-04T00:13:19.509Z,79.11
2022-12-04T00:16:28.188Z,78.98
2022-12-04T00:19:37.924Z,79.14
2022-12-04T00:22:40.906Z,79.16
2022-12-04T00:25:48.660Z,79.01
2022-12-04T00:28:57.788Z,79.12
2022-12-04T00:32:00.832Z,79.06
2022-12-04T00:35:03.859Z,79.30
2022-12-04T00:38:06.910Z,79.10
2022-12-04T00:41:15.755Z,79.11
2022-12-04T00:44:21.562Z,79.09
2022-12-04T00:47:24.542Z,79.34
2022-12-04T00:50:27.469Z,79.14
2022-12-04T00:53:30.271Z,79.24
2022-12-04T00:56:33.311Z,79.24
2022-12-04T00:59:38.080Z,79.07
2022-12-04T01:02:41.112Z,79.09
2022-12-04T01:05:45.961Z,79.27
2022-12-04T01:08:50.101Z,79.27
2022-12-04T01:11:53.068Z,79.02
2022-12-04T01:14:56.062Z,78.89
2022-12-04T01:17:59.192Z,78.98
2022-12-04T01:21:02.080Z,79.03
2022-12-04T01:24:05.899Z,79.10
2022-12-04T01:27:09.045Z,79.04
2022-12-04T01:30:12.595Z,79.19
2022-12-04T01:33:15.621Z,79.11
2022-12-04T01:36:25.833Z,79.16
2022-12-04T01:39:29.094Z,79.03
2022-12-04T01:42:32.028Z,79.12
2022-12-04T01:46:02.670Z,79.08
2022-12-04T01:49:21.536Z,79.25
2022-12-04T01:52:26.674Z,79.16
2022-12-04T01:55:30.958Z,79.32
2022-12-04T01:58:39.681Z,79.08
2022-12-04T02:01:49.462Z,79.15
2022-12-04T02:04:53.541Z,79.14
2022-12-04T02:08:01.614Z,79.34
2022-12-04T02:11:47.102Z,79.15
2022-12-04T02:15:04.520Z,79.18
2022-12-04T02:18:16.867Z,79.29
2022-12-04T02:21:36.409Z,79.26
2022-12-04T02:25:08.879Z,79.32
2022-12-04T02:28:23.098Z,79.30
2022-12-04T02:31:37.294Z,79.17
2022-12-04T02:35:10.913Z,79.20
2022-12-04T02:38:27.341Z,79.28
2022-12-04T02:41:42.233Z,79.35
2022-12-04T02:44:49.772Z,79.23
2022-12-04T02:47:54.682Z,79.11
2022-12-04T02:51:01.764Z,79.10
2022-12-04T02:54:36.268Z,79.36
2022-12-04T02:57:45.431Z,79.27
2022-12-04T03:00:50.676Z,79.13
2022-12-04T03:03:56.568Z,79.35
2022-12-04T03:07:05.663Z,79.27
2022-12-04T03:10:23.806Z,79.34
2022-12-04T03:13:36.398Z,79.16
2022-12-04T03:16:41.490Z,79.30
2022-12-04T03:19:51.655Z,79.45
2022-12-04T03:23:03.324Z,79.30
2022-12-04T03:26:09.308Z,79.50
2022-12-04T03:29:19.300Z,79.42
2022-12-04T03:32:35.052Z,79.53
2022-12-04T03:36:01.446Z,79.72
2022-12-04T03:39:25.233Z,79.69
2022-12-04T03:42:38.896Z,79.54
2022-12-04T03:45:57.573Z,79.65
2022-12-04T03:49:19.100Z,79.78
2022-12-04T03:52:37.018Z,79.69
2022-12-04T03:55:49.837Z,79.81
2022-12-04T03:59:00.874Z,79.65
2022-12-04T04:02:05.538Z,79.88
2022-12-04T04:05:11.363Z,79.77
2022-12-04T04:08:26.383Z,79.85
2022-12-04T04:11:34.424Z,79.91
2022-12-04T04:15:08.680Z,79.83
2022-12-04T04:18:30.500Z,79.91
2022-12-04T04:21:55.220Z,79.95
2022-12-04T04:25:04.301Z,79.87
2022-12-04T04:28:32.356Z,79.99
2022-12-04T04:31:42.036Z,80.00
2022-12-04T04:34:52.890Z,80.13
2022-12-04T04:38:14.488Z,79.93
2022-12-04T04:41:33.432Z,79.94
2022-12-04T04:44:52.987Z,79.97
2022-12-04T04:48:03.271Z,80.04
2022-12-04T04:51:06.855Z,79.95
2022-12-04T04:54:13.615Z,79.92
2022-12-04T04:57:28.119Z,79.83
2022-12-04T05:00:31.169Z,79.91
2022-12-04T05:03:34.450Z,80.05
2022-12-04T05:06:37.344Z,79.80
2022-12-04T05:09:41.523Z,79.65
2022-12-04T05:12:44.450Z,79.94
2022-12-04T05:16:19.733Z,79.76
2022-12-04T05:19:41.218Z,79.95
2022-12-04T05:22:44.093Z,79.74
2022-12-04T05:25:46.991Z,79.75
2022-12-04T05:28:49.871Z,79.83
2022-12-04T05:31:52.660Z,79.89
2022-12-04T05:34:56.747Z,80.00
2022-12-04T05:37:59.564Z,80.02
2022-12-04T05:41:05.293Z,80.00
2022-12-04T05:44:08.155Z,80.11
2022-12-04T05:47:27.627Z,79.98
2022-12-04T05:50:30.566Z,80.05
2022-12-04T05:53:33.581Z,80.26
2022-12-04T05:56:37.438Z,80.09
2022-12-04T05:59:44.555Z,79.99
2022-12-04T06:02:47.687Z,80.38
2022-12-04T06:06:21.090Z,79.96
2022-12-04T06:09:24.558Z,80.08
2022-12-04T06:12:27.486Z,80.00
2022-12-04T06:15:30.365Z,80.03
2022-12-04T06:18:33.148Z,79.98
2022-12-04T06:21:38.354Z,80.11
2022-12-04T06:24:41.366Z,80.20
2022-12-04T06:27:44.536Z,80.04
2022-12-04T06:30:47.424Z,80.04
2022-12-04T06:33:50.273Z,80.06
2022-12-04T06:36:53.104Z,80.03
2022-12-04T06:39:56.223Z,79.98
2022-12-04T06:42:59.471Z,80.15
2022-12-04T06:46:08.392Z,80.05
2022-12-04T06:49:11.312Z,79.94
2022-12-04T06:52:14.107Z,79.96
2022-12-04T06:55:17.000Z,80.00
2022-12-04T06:58:19.780Z,79.87
2022-12-04T07:01:25.728Z,79.95
2022-12-04T07:04:28.664Z,80.04
2022-12-04T07:07:31.605Z,79.86
2022-12-04T07:10:36.667Z,79.85
2022-12-04T07:13:39.648Z,79.83
2022-12-04T07:16:43.091Z,79.88
2022-12-04T07:19:46.186Z,79.97
2022-12-04T07:22:49.048Z,79.85
2022-12-04T07:25:52.157Z,79.91
2022-12-04T07:28:56.226Z,79.92
2022-12-04T07:31:59.130Z,80.04
2022-12-04T07:35:02.651Z,79.88
2022-12-04T07:38:05.501Z,79.97
2022-12-04T07:41:10.927Z,79.87
2022-12-04T07:44:13.794Z,80.18
2022-12-04T07:47:16.672Z,80.00
2022-12-04T07:50:19.609Z,80.16
2022-12-04T07:53:22.402Z,80.18
2022-12-04T07:56:25.547Z,80.10
2022-12-04T07:59:28.433Z,80.15
2022-12-04T08:02:34.979Z,80.15
2022-12-04T08:05:39.877Z,79.95
2022-12-04T08:08:42.956Z,80.14
2022-12-04T08:11:46.067Z,80.16
2022-12-04T08:14:50.288Z,80.09
2022-12-04T08:17:53.182Z,80.14
2022-12-04T08:21:06.899Z,80.26
2022-12-04T08:24:09.841Z,80.37
2022-12-04T08:27:12.870Z,80.51
2022-12-04T08:30:16.489Z,80.41
2022-12-04T08:33:19.494Z,80.48
2022-12-04T08:36:23.067Z,80.61
2022-12-04T08:39:27.015Z,80.57
2022-12-04T08:42:29.797Z,80.42
2022-12-04T08:45:35.285Z,80.42
2022-12-04T08:48:45.669Z,80.46
2022-12-04T08:51:48.725Z,80.38
2022-12-04T08:54:51.645Z,80.47
2022-12-04T08:57:55.056Z,80.41
2022-12-04T09:01:07.074Z,80.45
2022-12-04T09:04:10.094Z,80.44
2022-12-04T09:07:31.568Z,80.50
2022-12-04T09:10:44.774Z,80.52
2022-12-04T09:13:49.030Z,80.54
2022-12-04T09:16:53.759Z,80.46
2022-12-04T09:20:16.721Z,80.34
2022-12-04T09:23:20.041Z,80.41
2022-12-04T09:26:32.710Z,80.41
2022-12-04T09:29:35.716Z,80.37
2022-12-04T09:32:39.318Z,80.33
2022-12-04T09:35:42.217Z,80.35
2022-12-04T09:38:47.988Z,80.36
2022-12-04T09:42:03.064Z,80.34
2022-12-04T09:45:13.185Z,80.13
2022-12-04T09:48:19.565Z,80.15
2022-12-04T09:51:24.025Z,80.09
2022-12-04T09:54:39.270Z,80.14
2022-12-04T09:57:51.251Z,80.17
2022-12-04T10:00:55.767Z,80.13
2022-12-04T10:04:05.642Z,80.01
2022-12-04T10:07:25.763Z,80.09
2022-12-04T10:10:43.186Z,80.10
2022-12-04T10:14:31.048Z,80.04
2022-12-04T10:17:43.866Z,80.00
2022-12-04T10:20:55.814Z,79.90
2022-12-04T10:24:23.872Z,79.88
2022-12-04T10:27:32.832Z,80.01
2022-12-04T10:30:38.895Z,79.89
2022-12-04T10:33:51.407Z,79.85
2022-12-04T10:37:07.374Z,79.85
2022-12-04T10:40:21.897Z,79.88
2022-12-04T10:43:32.238Z,79.78
2022-12-04T10:46:36.046Z,79.74
2022-12-04T10:49:40.252Z,79.81
2022-12-04T10:52:43.700Z,79.75
2022-12-04T10:55:47.177Z,79.72
2022-12-04T10:58:58.238Z,79.68
2022-12-04T11:02:20.383Z,79.72
2022-12-04T11:05:30.337Z,79.61
2022-12-04T11:08:42.000Z,79.65
2022-12-04T11:11:45.139Z,79.69
2022-12-04T11:14:48.148Z,79.66
2022-12-04T11:17:53.012Z,79.69
2022-12-04T11:21:04.932Z,79.61
2022-12-04T11:24:21.223Z,79.60
2022-12-04T11:27:32.181Z,79.49
2022-12-04T11:30:37.572Z,79.57
2022-12-04T11:33:47.048Z,79.51
2022-12-04T11:36:55.253Z,79.41
2022-12-04T11:39:59.372Z,79.33
2022-12-04T11:43:07.720Z,79.31
2022-12-04T11:46:21.929Z,79.18
2022-12-04T11:49:27.959Z,79.24
2022-12-04T11:52:44.349Z,79.22
2022-12-04T11:55:59.600Z,79.15
2022-12-04T11:59:02.389Z,79.18
2022-12-04T12:02:34.300Z,79.12
2022-12-04T12:06:26.220Z,79.14
2022-12-04T12:09:57.295Z,79.03
2022-12-04T12:13:12.515Z,79.01
2022-12-04T12:16:35.259Z,78.87
2022-12-04T12:20:16.122Z,79.08
2022-12-04T12:23:40.981Z,79.11
2022-12-04T12:26:56.123Z,79.02
2022-12-04T12:30:07.340Z,78.91
2022-12-04T12:33:18.687Z,78.98
2022-12-04T12:36:26.729Z,79.00
2022-12-04T12:39:40.820Z,78.96
2022-12-04T12:43:12.574Z,79.00
2022-12-04T12:46:22.928Z,78.90
2022-12-04T12:49:50.182Z,78.97
2022-12-04T12:52:59.149Z,78.96
2022-12-04T12:56:04.308Z,78.99
2022-12-04T12:59:18.312Z,78.99
2022-12-04T13:02:33.963Z,78.93
2022-12-04T13:05:44.911Z,78.89
2022-12-04T13:09:19.389Z,78.83
2022-12-04T13:12:24.189Z,78.74
2022-12-04T13:15:54.691Z,78.76
2022-12-04T13:19:12.523Z,78.70
2022-12-04T13:22:34.898Z,78.82
2022-12-04T13:26:06.995Z,78.94
2022-12-04T13:29:41.194Z,78.85
2022-12-04T13:32:53.197Z,78.82
2022-12-04T13:36:18.368Z,78.81
2022-12-04T13:39:48.216Z,78.77
2022-12-04T13:43:21.721Z,78.95
2022-12-04T13:46:41.311Z,78.99
2022-12-04T13:49:48.724Z,78.85
2022-12-04T13:52:55.566Z,78.97
2022-12-04T13:56:04.434Z,79.19
2022-12-04T13:59:32.675Z,79.20
2022-12-04T14:02:38.146Z,79.25
2022-12-04T14:05:43.624Z,79.21
2022-12-04T14:08:46.917Z,79.24
2022-12-04T14:11:56.988Z,79.35
2022-12-04T14:15:07.780Z,79.25
2022-12-04T14:18:14.274Z,79.30
2022-12-04T14:21:17.496Z,79.24
2022-12-04T14:24:38.304Z,79.28
2022-12-04T14:27:41.539Z,79.33
2022-12-04T14:30:45.530Z,79.24
2022-12-04T14:33:52.595Z,79.38
2022-12-04T14:36:59.528Z,79.37
2022-12-04T14:40:07.704Z,79.42
2022-12-04T14:43:20.051Z,79.33
2022-12-04T14:46:52.129Z,79.25
2022-12-04T14:50:15.418Z,79.33
2022-12-04T14:53:43.117Z,79.29
2022-12-04T14:57:23.792Z,79.33
2022-12-04T15:00:26.979Z,79.33
2022-12-04T15:03:34.622Z,79.37
2022-12-04T15:06:41.960Z,79.24
2022-12-04T15:10:12.032Z,79.22
2022-12-04T15:13:27.753Z,79.31
2022-12-04T15:16:30.774Z,79.37
2022-12-04T15:19:33.729Z,79.32
2022-12-04T15:22:36.890Z,79.26
2022-12-04T15:25:50.899Z,79.24
2022-12-04T15:29:03.371Z,79.33
2022-12-04T15:32:12.074Z,79.34
2022-12-04T15:35:29.786Z,79.40
2022-12-04T15:38:33.660Z,79.39
2022-12-04T15:41:42.900Z,79.34
2022-12-04T15:44:52.644Z,79.46
2022-12-04T15:47:55.961Z,79.50
2022-12-04T15:51:03.536Z,79.42
2022-12-04T15:54:26.647Z,79.39
2022-12-04T15:57:34.597Z,79.47
2022-12-04T16:00:40.253Z,79.58
2022-12-04T16:03:43.244Z,79.59
2022-12-04T16:06:48.494Z,79.75
2022-12-04T16:10:02.848Z,79.81
2022-12-04T16:13:06.750Z,79.78
2022-12-04T16:16:17.573Z,79.71
2022-12-04T16:19:26.273Z,79.95
2022-12-04T16:22:30.192Z,79.97
2022-12-04T16:25:33.256Z,80.11
2022-12-04T16:28:36.223Z,80.18
2022-12-04T16:31:39.257Z,80.34
2022-12-04T16:34:42.242Z,80.27
2022-12-04T16:37:46.709Z,80.30
2022-12-04T16:40:49.566Z,80.11
2022-12-04T16:43:56.850Z,80.30
2022-12-04T16:46:59.753Z,80.25
2022-12-04T16:50:02.790Z,80.29
2022-12-04T16:53:05.825Z,80.21
2022-12-04T16:56:09.498Z,80.23
2022-12-04T16:59:13.709Z,80.37
2022-12-04T17:02:24.058Z,80.42
2022-12-04T17:05:29.381Z,80.33
2022-12-04T17:08:33.170Z,80.37
2022-12-04T19:10:13.257Z,75.45
2022-12-04T19:17:02.289Z,76.14
2022-12-04T19:17:27.000Z,76.68
2022-12-04T19:20:32.188Z,77.01
2022-12-04T19:23:40.790Z,77.33
2022-12-04T19:26:46.402Z,77.40
2022-12-04T19:29:50.803Z,77.66
2022-12-04T19:32:56.041Z,77.96
2022-12-04T19:36:05.377Z,78.37
2022-12-04T19:39:11.039Z,78.58
2022-12-04T19:42:16.895Z,78.80
2022-12-04T19:45:21.370Z,79.17
2022-12-04T19:48:27.846Z,79.16
2022-12-04T19:56:30.279Z,79.51
2022-12-04T19:59:36.953Z,79.45
2022-12-04T20:02:40.796Z,79.55
2022-12-04T20:05:43.619Z,79.74
2022-12-04T20:08:47.234Z,79.94
2022-12-04T20:16:43.507Z,80.18
2022-12-04T20:19:46.523Z,80.13
2022-12-04T20:22:51.451Z,80.23
2022-12-04T20:25:54.912Z,80.07
2022-12-04T20:28:59.940Z,80.14
2022-12-04T20:32:02.859Z,80.21
2022-12-04T20:35:07.304Z,80.12
2022-12-04T20:38:10.243Z,80.27
2022-12-04T20:41:16.118Z,80.23
2022-12-04T20:49:21.744Z,80.46
2022-12-04T20:52:25.343Z,80.44
2022-12-04T20:55:57.510Z,80.41
2022-12-04T20:59:04.985Z,80.46
2022-12-04T21:02:07.863Z,80.38
2022-12-04T21:05:10.811Z,80.32
2022-12-04T21:08:14.860Z,80.31
2022-12-04T21:11:17.794Z,80.50
2022-12-04T21:14:43.605Z,80.58
2022-12-04T21:17:46.531Z,80.57
2022-12-04T21:20:49.392Z,80.60
2022-12-04T21:23:52.536Z,80.58
2022-12-04T21:31:50.919Z,80.87
2022-12-04T21:34:55.882Z,80.90
2022-12-04T21:38:00.648Z,80.98
2022-12-04T21:41:09.230Z,80.98
2022-12-04T21:44:16.627Z,81.06
2022-12-04T21:57:20.900Z,80.97
2022-12-04T22:00:23.872Z,80.98
2022-12-04T22:03:26.731Z,81.14
2022-12-04T22:10:53.089Z,81.10
2022-12-04T22:13:56.193Z,81.02
2022-12-04T22:17:00.208Z,81.04
2022-12-04T22:20:03.781Z,81.15
2022-12-04T22:33:09.028Z,81.32
2022-12-04T22:36:16.117Z,81.41
2022-12-04T22:40:10.621Z,81.30
2022-12-04T22:43:13.441Z,81.30
2022-12-04T22:46:16.987Z,81.23
2022-12-04T22:49:20.087Z,81.18
2022-12-04T22:52:23.219Z,81.20
2022-12-04T22:55:26.053Z,81.15
2022-12-04T22:58:28.920Z,81.21
2022-12-04T23:01:34.443Z,81.25
2022-12-04T23:04:37.508Z,81.32
2022-12-04T23:07:40.716Z,81.30
2022-12-04T23:10:43.726Z,81.32
2022-12-04T23:13:55.484Z,81.40
2022-12-04T23:16:58.557Z,81.37
2022-12-04T23:20:01.381Z,81.30
2022-12-04T23:23:04.249Z,81.25
2022-12-04T23:26:16.622Z,81.33
2022-12-04T23:29:50.938Z,81.45
2022-12-04T23:32:45.220Z,81.29
2022-12-04T23:35:57.194Z,81.37
2022-12-04T23:39:00.275Z,81.47
2022-12-04T23:42:03.512Z,81.59
2022-12-04T23:45:08.034Z,81.61
2022-12-04T23:48:11.414Z,81.65
2022-12-04T23:51:17.686Z,81.61
2022-12-04T23:54:20.858Z,81.54
2022-12-04T23:57:23.941Z,81.61
